createdAt,value
2023-01-05T00:02:45.958Z,12.34
2023-01-05T00:05:49.655Z,12.33
2023-01-05T00:08:53.605Z,12.13
2023-01-05T00:12:15.851Z,12.30
2023-01-05T00:15:37.047Z,12.27
2023-01-05T00:18:58.269Z,12.35
2023-01-05T00:22:19.438Z,12.29
2023-01-05T00:25:25.387Z,12.25
2023-01-05T00:28:30.633Z,12.17
2023-01-05T00:31:34.432Z,12.26
2023-01-05T00:34:38.337Z,12.14
2023-01-05T00:37:42.455Z,12.23
2023-01-05T00:40:46.252Z,12.33
2023-01-05T00:43:51.474Z,12.38
2023-01-05T00:46:55.462Z,12.24
2023-01-05T00:49:59.248Z,12.23
2023-01-05T00:53:03.018Z,12.25
2023-01-05T00:56:06.762Z,12.17
2023-01-05T00:59:12.612Z,12.31
2023-01-05T01:02:16.757Z,12.10
2023-01-05T01:05:20.717Z,11.84
2023-01-05T01:08:24.378Z,11.95
2023-01-05T01:11:28.007Z,12.01
2023-01-05T01:14:33.108Z,12.20
2023-01-05T01:17:36.926Z,12.15
2023-01-05T01:20:40.780Z,12.03
2023-01-05T01:23:44.972Z,12.09
2023-01-05T01:26:49.747Z,12.17
2023-01-05T01:29:54.778Z,12.09
2023-01-05T01:32:58.435Z,12.11
2023-01-05T01:36:05.722Z,12.27
2023-01-05T01:39:09.841Z,12.24
2023-01-05T01:42:17.075Z,12.10
2023-01-05T01:45:25.437Z,12.12
2023-01-05T01:48:29.260Z,12.21
2023-01-05T01:51:37.401Z,12.06
2023-01-05T01:54:41.334Z,12.12
2023-01-05T01:57:46.646Z,12.20
2023-01-05T02:00:51.886Z,12.31
2023-01-05T02:03:56.704Z,12.25
2023-01-05T02:07:01.302Z,12.19
2023-01-05T02:10:06.532Z,12.17
2023-01-05T02:13:31.231Z,12.17
2023-01-05T02:16:48.384Z,12.13
2023-01-05T02:20:36.906Z,12.13
2023-01-05T02:24:12.723Z,11.96
2023-01-05T02:27:45.320Z,11.77
2023-01-05T02:31:01.882Z,11.91
2023-01-05T02:34:23.439Z,11.83
2023-01-05T02:37:37.840Z,11.81
2023-01-05T02:40:47.071Z,11.70
2023-01-05T02:43:51.481Z,11.58
2023-01-05T02:47:05.176Z,11.79
2023-01-05T02:50:14.452Z,11.98
2023-01-05T02:53:23.794Z,11.91
2023-01-05T02:56:32.169Z,11.95
2023-01-05T02:59:38.793Z,11.86
2023-01-05T03:02:48.679Z,11.84
2023-01-05T03:05:57.883Z,11.94
2023-01-05T03:09:05.604Z,11.93
2023-01-05T03:12:32.867Z,11.62
2023-01-05T03:15:39.587Z,11.65
2023-01-05T03:19:03.877Z,11.68
2023-01-05T03:22:30.481Z,11.84
2023-01-05T03:25:56.308Z,11.68
2023-01-05T03:29:19.687Z,11.69
2023-01-05T03:32:45.800Z,11.73
2023-01-05T03:35:56.668Z,11.67
2023-01-05T03:39:03.444Z,11.76
2023-01-05T03:42:12.476Z,11.83
2023-01-05T03:45:19.365Z,11.81
2023-01-05T03:48:27.121Z,11.73
2023-01-05T03:51:37.735Z,11.53
2023-01-05T03:54:45.039Z,11.51
2023-01-05T03:57:48.679Z,11.48
2023-01-05T04:00:53.076Z,11.35
2023-01-05T04:03:59.095Z,11.49
2023-01-05T04:07:04.221Z,11.42
2023-01-05T04:10:11.141Z,11.33
2023-01-05T04:13:15.528Z,11.33
2023-01-05T04:16:20.499Z,11.45
2023-01-05T04:19:26.380Z,11.41
2023-01-05T04:22:33.331Z,11.57
2023-01-05T04:25:37.394Z,11.57
2023-01-05T04:28:51.760Z,11.43
2023-01-05T04:31:59.937Z,11.52
2023-01-05T04:35:10.671Z,11.35
2023-01-05T04:38:17.766Z,11.47
2023-01-05T04:41:21.559Z,11.30
2023-01-05T04:44:28.082Z,11.31
2023-01-05T04:47:33.034Z,11.20
2023-01-05T04:50:37.117Z,11.27
2023-01-05T04:53:44.330Z,11.21
2023-01-05T04:56:52.235Z,11.32
2023-01-05T04:59:56.169Z,11.22
2023-01-05T05:03:04.587Z,11.11
2023-01-05T05:06:09.731Z,11.11
2023-01-05T05:09:16.715Z,11.24
2023-01-05T05:12:21.259Z,11.30
2023-01-05T05:15:28.197Z,11.35
2023-01-05T05:18:32.239Z,11.30
2023-01-05T05:21:37.495Z,11.41
2023-01-05T05:24:43.446Z,11.26
2023-01-05T05:27:47.457Z,11.22
2023-01-05T05:30:51.620Z,11.07
2023-01-05T05:33:55.530Z,11.29
2023-01-05T05:36:59.231Z,11.33
2023-01-05T05:40:04.559Z,11.32
2023-01-05T05:43:08.505Z,11.31
2023-01-05T05:46:12.336Z,11.31
2023-01-05T05:49:16.157Z,11.25
2023-01-05T05:52:19.924Z,11.21
2023-01-05T05:55:25.159Z,11.28
2023-01-05T05:58:28.946Z,11.27
2023-01-05T06:01:32.931Z,11.34
2023-01-05T06:04:36.995Z,10.99
2023-01-05T06:07:40.945Z,11.10
2023-01-05T06:10:46.325Z,11.19
2023-01-05T06:13:50.253Z,11.19
2023-01-05T06:16:53.980Z,11.24
2023-01-05T06:19:57.675Z,11.23
2023-01-05T06:23:01.519Z,11.42
2023-01-05T06:26:07.034Z,11.38
2023-01-05T06:29:10.802Z,11.68
2023-01-05T06:32:14.528Z,11.78
2023-01-05T06:35:18.595Z,11.94
2023-01-05T06:38:22.475Z,12.20
2023-01-05T06:41:27.643Z,12.34
2023-01-05T06:44:31.464Z,12.50
2023-01-05T06:47:35.515Z,12.57
2023-01-05T06:50:39.373Z,12.64
2023-01-05T06:53:43.107Z,12.38
2023-01-05T06:56:48.367Z,12.04
2023-01-05T06:59:52.194Z,11.52
2023-01-05T07:02:55.897Z,11.66
2023-01-05T07:05:59.705Z,11.80
2023-01-05T07:09:03.750Z,11.81
2023-01-05T07:12:09.897Z,11.89
2023-01-05T07:15:13.728Z,11.84
2023-01-05T07:18:17.545Z,11.88
2023-01-05T07:21:21.663Z,11.88
2023-01-05T07:24:25.423Z,11.96
2023-01-05T07:27:30.764Z,12.37
2023-01-05T07:30:34.594Z,12.75
2023-01-05T07:33:40.285Z,13.11
2023-01-05T07:36:44.295Z,13.23
2023-01-05T07:39:47.981Z,13.61
2023-01-05T07:42:54.565Z,13.62
2023-01-05T07:46:01.848Z,13.89
2023-01-05T07:49:05.923Z,14.21
2023-01-05T07:52:09.746Z,14.39
2023-01-05T07:55:14.142Z,14.54
2023-01-05T07:58:19.288Z,14.84
2023-01-05T08:01:23.243Z,14.81
2023-01-05T08:04:27.186Z,15.09
2023-01-05T08:07:30.975Z,15.28
2023-01-05T08:10:34.847Z,15.36
2023-01-05T08:13:57.548Z,15.57
2023-01-05T08:17:01.660Z,15.47
2023-01-05T08:20:05.927Z,15.64
2023-01-05T08:23:09.736Z,15.62
2023-01-05T08:26:15.979Z,15.96
2023-01-05T08:29:21.278Z,15.79
2023-01-05T08:32:25.287Z,15.92
2023-01-05T08:35:29.304Z,16.17
2023-01-05T08:38:33.101Z,16.40
2023-01-05T08:41:39.845Z,16.33
2023-01-05T08:44:45.069Z,16.32
2023-01-05T08:47:48.775Z,15.83
2023-01-05T08:50:52.545Z,16.53
2023-01-05T08:53:56.726Z,16.74
2023-01-05T08:57:00.555Z,16.76
2023-01-05T09:00:07.217Z,17.13
2023-01-05T09:03:11.403Z,17.31
2023-01-05T09:06:16.076Z,17.75
2023-01-05T09:09:19.974Z,18.00
2023-01-05T09:12:25.765Z,17.76
2023-01-05T09:15:34.449Z,18.00
2023-01-05T09:18:38.897Z,18.18
2023-01-05T09:21:42.608Z,18.37
2023-01-05T09:24:46.525Z,17.29
2023-01-05T09:27:50.199Z,17.93
2023-01-05T09:30:55.635Z,18.03
2023-01-05T09:34:00.407Z,18.22
2023-01-05T09:37:04.118Z,18.12
2023-01-05T09:40:09.310Z,18.08
2023-01-05T09:43:22.057Z,18.15
2023-01-05T09:46:31.853Z,18.31
2023-01-05T09:49:36.496Z,17.64
2023-01-05T09:52:40.946Z,18.34
2023-01-05T09:55:49.418Z,18.48
2023-01-05T09:58:57.613Z,18.69
2023-01-05T10:02:08.116Z,18.68
2023-01-05T10:05:14.893Z,19.15
2023-01-05T10:08:24.455Z,19.01
2023-01-05T10:11:55.570Z,19.32
2023-01-05T10:15:05.665Z,18.70
2023-01-05T10:18:18.983Z,19.11
2023-01-05T10:21:32.580Z,18.64
2023-01-05T10:24:48.328Z,18.83
2023-01-05T10:28:01.300Z,19.42
2023-01-05T10:31:14.730Z,19.63
2023-01-05T10:34:24.925Z,19.59
2023-01-05T10:37:47.107Z,19.65
2023-01-05T10:41:00.849Z,19.60
2023-01-05T10:44:40.717Z,19.65
2023-01-05T10:47:46.595Z,19.75
2023-01-05T10:50:55.695Z,18.79
2023-01-05T10:53:59.627Z,19.62
2023-01-05T10:57:36.894Z,19.87
2023-01-05T11:00:43.683Z,19.53
2023-01-05T11:04:26.593Z,19.06
2023-01-05T11:07:15.859Z,19.12
2023-01-05T11:10:25.516Z,19.08
2023-01-05T11:13:33.874Z,18.82
2023-01-05T11:16:38.591Z,18.56
2023-01-05T11:19:46.932Z,18.60
2023-01-05T11:22:52.140Z,18.69
2023-01-05T11:25:56.080Z,18.53
2023-01-05T11:29:15.895Z,18.44
2023-01-05T11:32:19.757Z,18.56
2023-01-05T11:35:31.202Z,18.43
2023-01-05T11:38:36.812Z,18.27
2023-01-05T11:41:42.309Z,18.40
2023-01-05T11:44:49.814Z,18.45
2023-01-05T11:47:56.560Z,18.24
2023-01-05T11:51:00.336Z,18.22
2023-01-05T11:54:07.066Z,18.40
2023-01-05T11:57:16.926Z,18.45
2023-01-05T12:00:25.818Z,18.11
2023-01-05T12:03:52.837Z,18.24
2023-01-05T12:07:10.546Z,18.20
2023-01-05T12:10:37.900Z,17.78
2023-01-05T12:13:54.926Z,18.11
2023-01-05T12:16:59.066Z,17.90
2023-01-05T12:20:14.011Z,18.20
2023-01-05T12:23:36.793Z,17.76
2023-01-05T12:26:52.433Z,18.06
2023-01-05T12:34:03.414Z,18.01
2023-01-05T12:37:22.536Z,18.13
2023-01-05T12:40:42.686Z,18.21
2023-01-05T12:44:01.794Z,18.02
2023-01-05T12:47:18.947Z,18.09
2023-01-05T12:50:28.819Z,18.37
2023-01-05T12:53:44.744Z,18.29
2023-01-05T12:56:52.901Z,18.05
2023-01-05T13:00:05.269Z,18.04
2023-01-05T13:03:18.259Z,18.10
2023-01-05T13:06:24.997Z,17.95
2023-01-05T13:09:33.602Z,18.09
2023-01-05T13:12:38.859Z,17.82
2023-01-05T13:15:54.237Z,17.76
2023-01-05T13:19:06.064Z,17.44
2023-01-05T13:22:16.746Z,17.58
2023-01-05T13:25:22.781Z,17.81
2023-01-05T13:28:29.963Z,17.67
2023-01-05T13:32:03.107Z,17.72
2023-01-05T13:35:26.198Z,17.94
2023-01-05T13:39:14.776Z,17.80
2023-01-05T13:42:51.379Z,17.69
2023-01-05T13:46:11.593Z,17.39
2023-01-05T13:49:50.909Z,17.25
2023-01-05T13:53:06.271Z,16.71
2023-01-05T13:56:23.100Z,16.81
2023-01-05T13:59:34.999Z,16.50
2023-01-05T14:02:42.563Z,16.69
2023-01-05T14:05:52.970Z,16.66
2023-01-05T14:09:01.723Z,16.36
2023-01-05T14:12:42.706Z,16.29
2023-01-05T14:15:46.490Z,16.04
2023-01-05T14:18:54.736Z,15.87
2023-01-05T14:22:03.539Z,16.07
2023-01-05T14:25:54.120Z,16.15
2023-01-05T14:28:57.829Z,16.27
2023-01-05T14:32:09.244Z,16.08
2023-01-05T14:35:29.735Z,15.91
2023-01-05T14:38:33.674Z,16.04
2023-01-05T14:41:40.068Z,16.16
2023-01-05T14:44:50.006Z,16.02
2023-01-05T14:47:57.145Z,15.84
2023-01-05T14:51:21.437Z,16.06
2023-01-05T14:55:27.112Z,15.84
2023-01-05T14:59:14.627Z,15.79
2023-01-05T15:02:23.337Z,15.76
2023-01-05T15:05:28.354Z,15.75
2023-01-05T15:08:56.000Z,15.69
2023-01-05T15:12:40.698Z,15.72
2023-01-05T15:15:51.663Z,15.48
2023-01-05T15:19:19.861Z,15.51
2023-01-05T15:22:39.373Z,15.49
2023-01-05T15:26:07.665Z,15.46
2023-01-05T15:29:35.002Z,15.50
2023-01-05T15:32:44.680Z,15.37
2023-01-05T15:36:02.567Z,15.39
2023-01-05T15:39:24.675Z,15.13
2023-01-05T15:42:33.005Z,15.14
2023-01-05T15:45:43.366Z,15.07
2023-01-05T15:48:51.772Z,15.12
2023-01-05T15:51:57.539Z,15.20
2023-01-05T15:55:04.394Z,15.14
2023-01-05T15:58:17.017Z,15.18
2023-01-05T16:01:21.052Z,15.18
2023-01-05T16:04:27.207Z,15.07
2023-01-05T16:07:30.986Z,15.09
2023-01-05T16:10:39.766Z,14.88
2023-01-05T16:13:49.833Z,14.82
2023-01-05T16:16:57.071Z,14.71
2023-01-05T16:20:08.049Z,14.66
2023-01-05T16:23:17.376Z,14.81
2023-01-05T16:26:21.357Z,14.77
2023-01-05T16:29:35.248Z,13.80
2023-01-05T16:32:42.109Z,14.07
2023-01-05T16:35:49.094Z,14.17
2023-01-05T16:38:52.868Z,14.18
2023-01-05T16:42:19.495Z,14.04
2023-01-05T16:45:25.599Z,14.27
2023-01-05T16:48:49.747Z,14.35
2023-01-05T16:51:56.581Z,14.33
2023-01-05T16:55:29.564Z,14.31
2023-01-05T16:58:38.818Z,14.36
2023-01-05T17:01:47.039Z,14.23
2023-01-05T17:04:50.822Z,14.26
2023-01-05T17:08:04.346Z,14.20
2023-01-05T17:11:12.986Z,13.97
2023-01-05T17:14:18.620Z,13.50
2023-01-05T17:17:22.326Z,13.62
2023-01-05T17:20:30.378Z,13.79
2023-01-05T17:23:42.448Z,13.72
2023-01-05T17:26:46.559Z,13.49
2023-01-05T17:29:50.349Z,13.54
2023-01-05T17:32:54.145Z,13.51
2023-01-05T17:35:58.112Z,13.49
2023-01-05T17:39:03.768Z,13.35
2023-01-05T17:42:24.917Z,13.48
2023-01-05T17:45:28.701Z,13.40
2023-01-05T17:48:32.488Z,13.43
2023-01-05T17:51:36.320Z,12.92
2023-01-05T17:54:42.721Z,12.55
2023-01-05T17:57:46.419Z,12.91
2023-01-05T18:00:50.344Z,13.10
2023-01-05T18:03:54.133Z,12.92
2023-01-05T18:06:59.308Z,12.77
2023-01-05T18:10:05.507Z,12.79
2023-01-05T18:13:11.148Z,12.96
2023-01-05T18:16:15.372Z,12.72
2023-01-05T18:19:19.289Z,12.67
2023-01-05T18:22:23.023Z,12.48
2023-01-05T18:25:28.284Z,12.51
2023-01-05T18:28:32.183Z,12.60
2023-01-05T18:31:38.617Z,12.21
2023-01-05T18:34:43.968Z,12.72
2023-01-05T18:37:47.829Z,12.86
2023-01-05T18:40:53.010Z,12.92
2023-01-05T18:43:56.952Z,12.92
2023-01-05T18:47:00.776Z,12.90
2023-01-05T18:50:06.304Z,12.69
2023-01-05T18:53:10.129Z,12.79
2023-01-05T18:56:16.247Z,12.94
2023-01-05T18:59:20.106Z,12.82
2023-01-05T19:02:23.925Z,12.98
2023-01-05T19:05:27.667Z,12.94
2023-01-05T19:08:31.608Z,12.89
2023-01-05T19:11:38.278Z,12.74
2023-01-05T19:14:41.972Z,12.69
2023-01-05T19:17:45.737Z,12.65
2023-01-05T19:20:58.092Z,12.54
2023-01-05T19:24:03.524Z,12.40
2023-01-05T19:27:08.685Z,12.36
2023-01-05T19:30:14.724Z,12.30
2023-01-05T19:33:18.448Z,12.24
2023-01-05T19:36:24.848Z,12.25
2023-01-05T19:39:28.573Z,12.10
2023-01-05T19:42:34.188Z,12.18
2023-01-05T19:45:37.901Z,12.40
2023-01-05T19:48:42.761Z,12.37
2023-01-05T19:51:47.362Z,12.35
2023-01-05T19:54:51.088Z,12.44
2023-01-05T19:57:56.318Z,12.54
2023-01-05T20:01:05.752Z,12.66
2023-01-05T20:04:09.838Z,12.75
2023-01-05T20:07:13.860Z,12.70
2023-01-05T20:10:17.789Z,12.65
2023-01-05T20:13:23.021Z,12.62
2023-01-05T20:16:26.776Z,12.74
2023-01-05T20:19:32.417Z,12.24
2023-01-05T20:22:36.308Z,12.11
2023-01-05T20:25:39.960Z,12.35
2023-01-05T20:28:46.994Z,12.55
2023-01-05T20:31:55.398Z,12.42
2023-01-05T20:35:00.943Z,12.31
2023-01-05T20:38:04.701Z,12.33
2023-01-05T20:41:20.224Z,12.35
2023-01-05T20:44:28.043Z,12.11
2023-01-05T20:47:39.382Z,12.13
2023-01-05T20:50:50.476Z,12.06
2023-01-05T20:53:56.061Z,12.42
2023-01-05T20:57:00.157Z,12.37
2023-01-05T21:00:06.076Z,12.30
2023-01-05T21:03:09.862Z,12.26
2023-01-05T21:06:17.443Z,12.32
2023-01-05T21:09:21.924Z,12.40
2023-01-05T21:12:25.905Z,12.46
2023-01-05T21:15:31.066Z,12.39
2023-01-05T21:18:35.333Z,12.44
2023-01-05T21:21:39.390Z,12.55
2023-01-05T21:24:43.494Z,12.59
2023-01-05T21:27:47.260Z,12.48
2023-01-05T21:30:52.702Z,12.49
2023-01-05T21:33:56.607Z,12.50
2023-01-05T21:37:00.360Z,12.43
2023-01-05T21:40:04.734Z,12.45
2023-01-05T21:43:08.489Z,12.11
2023-01-05T21:46:13.658Z,12.23
2023-01-05T21:49:18.029Z,11.89
2023-01-05T21:52:39.072Z,12.26
2023-01-05T21:55:59.987Z,12.17
2023-01-05T21:59:05.667Z,12.13
2023-01-05T22:02:11.357Z,12.12
2023-01-05T22:05:15.190Z,12.18
2023-01-05T22:08:19.139Z,12.15
2023-01-05T22:11:24.316Z,11.87
2023-01-05T22:14:28.075Z,11.84
2023-01-05T22:17:34.637Z,11.87
2023-01-05T22:20:38.938Z,11.84
2023-01-05T22:23:43.020Z,11.93
2023-01-05T22:26:46.829Z,11.95
2023-01-05T22:29:50.596Z,12.02
2023-01-05T22:32:56.624Z,12.04
2023-01-05T22:36:00.836Z,12.07
2023-01-05T22:39:04.959Z,12.05
2023-01-05T22:42:08.735Z,12.04
2023-01-05T22:45:13.088Z,11.94
2023-01-05T22:48:18.856Z,12.04
2023-01-05T22:51:24.886Z,11.91
2023-01-05T22:54:28.739Z,12.04
2023-01-05T22:57:32.623Z,12.23
2023-01-05T23:00:36.397Z,12.19
2023-01-05T23:03:42.509Z,12.27
2023-01-05T23:06:46.349Z,12.24
2023-01-05T23:09:50.088Z,12.22
2023-01-05T23:12:53.921Z,12.17
2023-01-05T23:15:58.470Z,12.28
2023-01-05T23:19:04.028Z,12.46
2023-01-05T23:22:11.490Z,12.50
2023-01-05T23:25:15.439Z,12.35
2023-01-05T23:28:20.568Z,12.52
2023-01-05T23:31:24.506Z,12.41
2023-01-05T23:34:30.320Z,12.26
2023-01-05T23:37:34.938Z,12.17
2023-01-05T23:40:42.618Z,12.44
2023-01-05T23:43:47.819Z,12.42
2023-01-05T23:46:51.545Z,12.63
2023-01-05T23:49:56.861Z,12.50
2023-01-05T23:53:00.706Z,12.53
2023-01-05T23:56:09.443Z,12.63
2023-01-05T23:59:14.458Z,12.62
